createdAt,value
2018-08-04T00:01:42.348Z,22.42
2018-08-04T00:04:10.388Z,22.30
2018-08-04T00:06:38.389Z,22.23
2018-08-04T00:09:09.644Z,22.09
2018-08-04T00:11:37.729Z,22.11
2018-08-04T00:14:05.777Z,22.14
2018-08-04T00:16:34.072Z,21.95
2018-08-04T00:19:02.157Z,21.80
2018-08-04T00:21:30.196Z,21.75
2018-08-04T00:23:58.360Z,21.78
2018-08-04T00:26:31.296Z,21.79
2018-08-04T00:29:00.220Z,21.81
2018-08-04T00:31:28.792Z,21.78
2018-08-04T00:33:57.013Z,21.77
2018-08-04T00:36:25.286Z,21.77
2018-08-04T00:38:53.556Z,21.52
2018-08-04T00:41:21.699Z,21.56
2018-08-04T00:43:49.992Z,21.56
2018-08-04T00:46:18.264Z,21.52
2018-08-04T00:48:46.330Z,21.49
2018-08-04T00:51:14.512Z,21.44
2018-08-04T00:53:42.585Z,21.54
2018-08-04T00:56:10.852Z,21.44
2018-08-04T00:58:39.028Z,21.55
2018-08-04T01:01:07.069Z,21.44
2018-08-04T01:03:35.367Z,21.45
2018-08-04T01:06:03.381Z,21.43
2018-08-04T01:08:31.433Z,21.46
2018-08-04T01:10:59.432Z,21.42
2018-08-04T01:13:27.442Z,21.35
2018-08-04T01:15:55.446Z,21.36
2018-08-04T01:18:23.477Z,21.35
2018-08-04T01:20:51.469Z,21.38
2018-08-04T01:23:19.465Z,21.33
2018-08-04T01:25:47.456Z,21.24
2018-08-04T01:28:15.509Z,21.29
2018-08-04T01:30:43.516Z,21.28
2018-08-04T01:33:11.518Z,21.36
2018-08-04T01:35:39.543Z,21.29
2018-08-04T01:38:08.551Z,21.32
2018-08-04T01:40:36.541Z,21.14
2018-08-04T01:43:05.667Z,21.16
2018-08-04T01:45:33.701Z,21.20
2018-08-04T01:48:01.696Z,21.24
2018-08-04T01:50:29.740Z,21.11
2018-08-04T01:52:57.737Z,21.12
2018-08-04T01:55:25.759Z,21.01
2018-08-04T01:57:53.782Z,20.98
2018-08-04T02:00:21.866Z,20.98
2018-08-04T02:02:49.889Z,21.01
2018-08-04T02:05:17.901Z,20.96
2018-08-04T02:07:45.903Z,21.01
2018-08-04T02:10:13.897Z,21.07
2018-08-04T02:12:41.901Z,20.93
2018-08-04T02:15:09.928Z,20.99
2018-08-04T02:17:37.969Z,21.08
2018-08-04T02:20:06.037Z,20.95
2018-08-04T02:22:34.148Z,20.72
2018-08-04T02:25:02.148Z,20.79
2018-08-04T02:27:30.184Z,20.90
2018-08-04T02:29:58.194Z,21.01
2018-08-04T02:32:26.193Z,21.21
2018-08-04T02:34:54.198Z,21.19
2018-08-04T02:37:22.205Z,21.23
2018-08-04T02:39:50.282Z,21.30
2018-08-04T02:42:18.317Z,21.20
2018-08-04T02:44:46.323Z,21.25
2018-08-04T02:47:14.349Z,21.26
2018-08-04T02:49:42.381Z,21.24
2018-08-04T02:52:10.396Z,21.07
2018-08-04T02:54:38.429Z,20.94
2018-08-04T02:57:06.438Z,21.09
2018-08-04T02:59:34.429Z,21.07
2018-08-04T03:02:02.437Z,21.09
2018-08-04T03:04:30.417Z,21.31
2018-08-04T03:06:58.450Z,21.40
2018-08-04T03:09:26.460Z,21.27
2018-08-04T03:11:54.459Z,21.21
2018-08-04T03:14:22.536Z,21.31
2018-08-04T03:16:50.580Z,21.35
2018-08-04T03:19:18.611Z,21.32
2018-08-04T03:21:46.675Z,21.31
2018-08-04T03:24:14.684Z,21.38
2018-08-04T03:26:42.664Z,21.58
2018-08-04T03:29:10.644Z,21.61
2018-08-04T03:31:38.681Z,21.64
2018-08-04T03:34:06.792Z,21.54
2018-08-04T03:36:35.090Z,21.24
2018-08-04T03:39:03.347Z,21.10
2018-08-04T03:41:31.399Z,21.03
2018-08-04T03:43:59.396Z,21.04
2018-08-04T03:46:27.441Z,21.01
2018-08-04T03:48:55.545Z,21.08
2018-08-04T03:51:23.569Z,21.14
2018-08-04T03:53:51.612Z,21.15
2018-08-04T03:56:19.600Z,21.36
2018-08-04T03:58:47.615Z,21.28
2018-08-04T04:01:15.592Z,21.51
2018-08-04T04:03:43.612Z,21.68
2018-08-04T04:06:11.717Z,21.69
2018-08-04T04:08:39.713Z,21.82
2018-08-04T04:11:07.719Z,21.89
2018-08-04T04:13:35.748Z,21.96
2018-08-04T04:16:03.790Z,21.79
2018-08-04T04:18:31.777Z,21.69
2018-08-04T04:20:59.778Z,21.88
2018-08-04T04:23:27.782Z,21.79
2018-08-04T04:25:55.777Z,21.71
2018-08-04T04:28:23.828Z,21.66
2018-08-04T04:30:51.849Z,21.65
2018-08-04T04:33:19.864Z,21.61
2018-08-04T04:35:47.852Z,21.81
2018-08-04T04:38:15.878Z,21.33
2018-08-04T04:40:43.925Z,21.36
2018-08-04T04:43:11.921Z,21.30
2018-08-04T04:45:39.921Z,21.39
2018-08-04T04:48:07.968Z,21.33
2018-08-04T04:50:35.980Z,21.43
2018-08-04T04:53:04.010Z,21.63
2018-08-04T04:55:32.077Z,21.69
2018-08-04T04:58:00.021Z,21.83
2018-08-04T05:00:28.096Z,21.84
2018-08-04T05:02:56.168Z,21.87
2018-08-04T05:05:24.140Z,21.89
2018-08-04T05:07:52.149Z,21.82
2018-08-04T05:10:20.141Z,21.82
2018-08-04T05:12:48.158Z,21.84
2018-08-04T05:15:16.144Z,21.91
2018-08-04T05:17:44.169Z,21.98
2018-08-04T05:20:12.241Z,22.21
2018-08-04T05:22:40.241Z,22.03
2018-08-04T05:25:08.382Z,22.19
2018-08-04T05:27:36.364Z,22.33
2018-08-04T05:30:05.640Z,22.40
2018-08-04T05:32:33.621Z,22.60
2018-08-04T05:35:01.606Z,22.99
2018-08-04T05:37:29.655Z,23.14
2018-08-04T05:39:57.629Z,23.21
2018-08-04T05:42:25.617Z,22.99
2018-08-04T05:44:53.620Z,22.90
2018-08-04T05:47:21.631Z,23.10
2018-08-04T05:49:49.620Z,23.18
2018-08-04T05:52:17.617Z,23.41
2018-08-04T05:54:45.620Z,23.48
2018-08-04T05:57:13.616Z,23.46
2018-08-04T05:59:41.641Z,23.57
2018-08-04T06:02:09.632Z,23.53
2018-08-04T06:04:37.665Z,23.28
2018-08-04T06:07:05.658Z,23.14
2018-08-04T06:09:33.688Z,23.03
2018-08-04T06:12:01.682Z,23.28
2018-08-04T06:14:29.669Z,23.38
2018-08-04T06:16:57.668Z,23.72
2018-08-04T06:19:25.688Z,23.73
2018-08-04T06:21:53.820Z,24.05
2018-08-04T06:24:21.813Z,24.40
2018-08-04T06:26:49.839Z,24.78
2018-08-04T06:29:17.861Z,25.01
2018-08-04T06:31:45.860Z,25.35
2018-08-04T06:34:13.868Z,25.86
2018-08-04T06:36:41.952Z,26.06
2018-08-04T06:39:10.053Z,26.61
2018-08-04T06:41:38.128Z,26.91
2018-08-04T06:44:07.113Z,27.40
2018-08-04T06:46:35.112Z,27.37
2018-08-04T06:49:03.165Z,27.78
2018-08-04T06:51:32.237Z,28.20
2018-08-04T06:54:00.299Z,28.32
2018-08-04T06:56:28.313Z,28.83
2018-08-04T06:58:56.344Z,29.26
2018-08-04T07:01:24.420Z,29.61
2018-08-04T07:03:52.620Z,29.38
2018-08-04T07:06:20.658Z,29.78
2018-08-04T07:08:48.658Z,29.54
2018-08-04T07:11:16.672Z,29.99
2018-08-04T07:13:44.689Z,30.49
2018-08-04T07:16:12.749Z,30.92
2018-08-04T07:18:41.881Z,30.79
2018-08-04T07:21:09.896Z,31.21
2018-08-04T07:23:37.924Z,31.39
2018-08-04T07:26:05.996Z,31.77
2018-08-04T07:28:33.990Z,32.39
2018-08-04T07:31:02.001Z,32.97
2018-08-04T07:33:30.068Z,33.80
2018-08-04T07:35:58.150Z,31.57
2018-08-04T07:38:26.236Z,31.60
2018-08-04T07:40:54.338Z,32.18
2018-08-04T07:43:22.392Z,31.75
2018-08-04T07:45:50.450Z,31.38
2018-08-04T07:48:18.485Z,31.38
2018-08-04T07:50:46.574Z,30.84
2018-08-04T07:53:14.560Z,29.84
2018-08-04T07:55:42.575Z,29.51
2018-08-04T07:58:10.637Z,29.43
2018-08-04T08:00:39.169Z,29.86
2018-08-04T08:03:07.224Z,30.13
2018-08-04T08:05:35.229Z,30.45
2018-08-04T08:08:03.296Z,31.01
2018-08-04T08:10:31.323Z,31.45
2018-08-04T08:12:59.332Z,32.27
2018-08-04T08:15:27.396Z,32.51
2018-08-04T08:17:55.584Z,33.40
2018-08-04T08:20:23.675Z,33.99
2018-08-04T08:22:51.713Z,33.73
2018-08-04T08:25:19.868Z,33.32
2018-08-04T08:27:47.853Z,33.17
2018-08-04T08:30:16.383Z,33.74
2018-08-04T08:32:44.463Z,33.60
2018-08-04T08:35:12.612Z,33.56
2018-08-04T08:37:40.980Z,34.20
2018-08-04T08:40:09.376Z,33.76
2018-08-04T08:42:37.400Z,33.24
2018-08-04T08:45:07.240Z,32.94
2018-08-04T08:47:35.361Z,33.35
2018-08-04T08:50:04.700Z,34.10
2018-08-04T08:52:32.772Z,34.44
2018-08-04T08:55:00.808Z,34.03
2018-08-04T08:57:28.821Z,34.35
2018-08-04T08:59:56.812Z,34.18
2018-08-04T09:02:24.892Z,33.46
2018-08-04T09:04:52.938Z,33.00
2018-08-04T09:07:21.004Z,33.17
2018-08-04T09:09:50.092Z,32.94
2018-08-04T09:12:18.168Z,32.79
2018-08-04T09:14:47.256Z,32.66
2018-08-04T09:17:15.368Z,32.48
2018-08-04T09:19:43.370Z,32.53
2018-08-04T09:22:11.412Z,32.26
2018-08-04T09:24:39.454Z,32.21
2018-08-04T09:27:07.553Z,32.88
2018-08-04T09:29:35.583Z,33.43
2018-08-04T09:32:03.584Z,33.95
2018-08-04T09:34:31.576Z,34.03
2018-08-04T09:36:59.568Z,34.12
2018-08-04T09:39:27.603Z,33.24
2018-08-04T09:41:55.678Z,33.16
2018-08-04T09:44:23.716Z,33.32
2018-08-04T09:46:51.716Z,33.73
2018-08-04T09:49:19.736Z,33.55
2018-08-04T09:51:48.737Z,33.06
2018-08-04T09:54:16.758Z,32.87
2018-08-04T09:56:44.744Z,33.04
2018-08-04T09:59:12.755Z,32.96
2018-08-04T10:01:40.842Z,33.50
2018-08-04T10:04:09.024Z,33.44
2018-08-04T10:06:37.105Z,33.13
2018-08-04T10:09:07.827Z,32.94
2018-08-04T10:11:35.923Z,33.41
2018-08-04T10:14:04.484Z,33.66
2018-08-04T10:16:32.479Z,33.84
2018-08-04T10:19:00.532Z,33.87
2018-08-04T10:21:28.554Z,33.27
2018-08-04T10:23:56.567Z,32.96
2018-08-04T10:26:24.572Z,32.95
2018-08-04T10:28:52.565Z,33.35
2018-08-04T10:31:20.559Z,33.67
2018-08-04T10:33:48.564Z,33.42
2018-08-04T10:36:16.637Z,33.81
2018-08-04T10:38:44.624Z,33.66
2018-08-04T10:41:12.664Z,33.94
2018-08-04T10:43:40.682Z,33.44
2018-08-04T10:46:08.702Z,33.50
2018-08-04T10:48:36.704Z,33.37
2018-08-04T10:51:04.728Z,33.77
2018-08-04T10:53:32.732Z,33.91
2018-08-04T10:56:00.752Z,34.04
2018-08-04T10:58:28.769Z,34.47
2018-08-04T11:00:56.735Z,34.46
2018-08-04T11:03:24.732Z,34.47
2018-08-04T11:05:52.785Z,34.66
2018-08-04T11:08:20.765Z,34.85
2018-08-04T11:10:48.732Z,35.09
2018-08-04T11:13:16.784Z,34.32
2018-08-04T11:15:44.795Z,34.11
2018-08-04T11:18:12.800Z,34.14
2018-08-04T11:20:40.786Z,34.22
2018-08-04T11:23:08.797Z,33.68
2018-08-04T11:25:36.792Z,33.52
2018-08-04T11:28:05.107Z,33.72
2018-08-04T11:30:33.064Z,33.85
2018-08-04T11:33:01.077Z,33.88
2018-08-04T11:35:29.112Z,34.29
2018-08-04T11:37:57.097Z,34.19
2018-08-04T11:40:25.072Z,34.16
2018-08-04T11:42:53.115Z,34.22
2018-08-04T11:45:21.117Z,34.53
2018-08-04T11:47:49.157Z,34.69
2018-08-04T11:50:17.144Z,35.13
2018-08-04T11:52:45.141Z,35.22
2018-08-04T11:55:13.121Z,35.03
2018-08-04T11:57:41.122Z,35.13
2018-08-04T12:00:09.110Z,35.22
2018-08-04T12:02:37.113Z,35.31
2018-08-04T12:05:05.254Z,35.57
2018-08-04T12:07:33.278Z,35.37
2018-08-04T12:10:01.267Z,35.08
2018-08-04T12:12:29.243Z,34.97
2018-08-04T12:14:57.400Z,35.39
2018-08-04T12:17:25.457Z,35.78
2018-08-04T12:19:53.464Z,35.35
2018-08-04T12:22:21.930Z,35.47
2018-08-04T12:24:49.958Z,35.55
2018-08-04T12:27:17.928Z,35.65
2018-08-04T12:29:45.930Z,35.95
2018-08-04T12:32:14.013Z,36.30
2018-08-04T12:34:42.121Z,36.46
2018-08-04T12:37:10.096Z,36.46
2018-08-04T12:39:38.345Z,36.54
2018-08-04T12:42:06.344Z,36.34
2018-08-04T12:44:34.396Z,36.10
2018-08-04T12:47:02.408Z,36.40
2018-08-04T12:49:30.399Z,36.54
2018-08-04T12:51:58.374Z,36.72
2018-08-04T12:54:26.434Z,36.60
2018-08-04T12:56:54.348Z,36.79
2018-08-04T12:59:22.491Z,36.66
2018-08-04T13:01:50.476Z,35.85
2018-08-04T13:04:18.471Z,35.77
2018-08-04T13:06:46.477Z,35.74
2018-08-04T13:09:14.548Z,35.55
2018-08-04T13:11:42.687Z,34.89
2018-08-04T13:14:10.676Z,35.28
2018-08-04T13:16:38.662Z,35.44
2018-08-04T13:19:06.648Z,35.36
2018-08-04T13:21:34.612Z,35.57
2018-08-04T13:24:02.659Z,36.10
2018-08-04T13:26:30.633Z,36.52
2018-08-04T13:28:58.624Z,36.89
2018-08-04T13:31:26.597Z,36.76
2018-08-04T13:33:54.636Z,36.04
2018-08-04T13:36:22.648Z,35.70
2018-08-04T13:38:50.688Z,35.33
2018-08-04T13:41:18.693Z,35.48
2018-08-04T13:43:46.703Z,35.34
2018-08-04T13:46:14.802Z,35.50
2018-08-04T13:48:42.783Z,35.02
2018-08-04T13:51:10.755Z,34.74
2018-08-04T13:53:38.762Z,34.76
2018-08-04T13:56:07.090Z,34.87
2018-08-04T13:58:35.281Z,35.02
2018-08-04T14:01:03.265Z,34.83
2018-08-04T14:03:31.272Z,34.65
2018-08-04T14:05:59.361Z,34.12
2018-08-04T14:08:27.284Z,34.05
2018-08-04T14:10:55.277Z,34.07
2018-08-04T14:13:23.273Z,34.40
2018-08-04T14:15:51.325Z,34.65
2018-08-04T14:18:19.324Z,34.99
2018-08-04T14:20:47.411Z,35.22
2018-08-04T14:23:15.388Z,35.29
2018-08-04T14:25:43.456Z,35.38
2018-08-04T14:28:11.428Z,34.77
2018-08-04T14:30:39.505Z,34.31
2018-08-04T14:33:07.552Z,33.99
2018-08-04T14:35:35.544Z,34.07
2018-08-04T14:38:03.592Z,33.74
2018-08-04T14:40:31.603Z,33.50
2018-08-04T14:43:00.668Z,33.26
2018-08-04T14:45:28.661Z,33.13
2018-08-04T14:47:56.706Z,33.02
2018-08-04T14:50:24.969Z,32.90
2018-08-04T14:52:53.283Z,32.95
2018-08-04T14:55:21.672Z,33.31
2018-08-04T14:57:49.748Z,33.33
2018-08-04T15:00:17.744Z,33.47
2018-08-04T15:02:45.730Z,33.61
2018-08-04T15:05:13.769Z,33.71
2018-08-04T15:07:41.796Z,33.74
2018-08-04T15:10:09.857Z,33.61
2018-08-04T15:12:37.838Z,33.72
2018-08-04T15:15:06.613Z,33.69
2018-08-04T15:17:34.680Z,33.93
2018-08-04T15:20:02.696Z,33.79
2018-08-04T15:22:30.783Z,33.68
2018-08-04T15:24:58.877Z,33.51
2018-08-04T15:27:26.909Z,33.64
2018-08-04T15:29:54.973Z,33.65
2018-08-04T15:32:22.940Z,33.82
2018-08-04T15:34:50.960Z,33.57
2018-08-04T15:37:19.001Z,33.51
2018-08-04T15:39:47.000Z,33.49
2018-08-04T15:42:14.992Z,33.65
2018-08-04T15:44:43.287Z,33.39
2018-08-04T15:47:11.330Z,33.34
2018-08-04T15:49:40.055Z,33.51
2018-08-04T15:52:08.120Z,33.52
2018-08-04T15:54:36.104Z,33.22
2018-08-04T15:57:04.173Z,33.05
2018-08-04T15:59:32.613Z,32.99
2018-08-04T16:02:00.697Z,32.99
2018-08-04T16:04:28.688Z,32.97
2018-08-04T16:06:56.692Z,33.01
2018-08-04T16:09:24.680Z,32.76
2018-08-04T16:11:52.680Z,32.82
2018-08-04T16:14:20.666Z,32.70
2018-08-04T16:16:48.838Z,32.73
2018-08-04T16:21:58.073Z,32.75
2018-08-04T16:24:26.219Z,32.63
2018-08-04T16:26:54.177Z,32.89
2018-08-04T16:29:22.275Z,33.02
2018-08-04T16:31:50.261Z,32.85
2018-08-04T16:34:19.825Z,32.82
2018-08-04T16:36:47.808Z,32.86
2018-08-04T16:39:15.836Z,32.82
2018-08-04T16:41:44.042Z,32.74
2018-08-04T16:44:11.913Z,32.61
2018-08-04T16:46:39.916Z,32.17
2018-08-04T16:49:07.953Z,31.82
2018-08-04T16:51:36.065Z,31.75
2018-08-04T16:54:04.064Z,31.75
2018-08-04T16:56:32.051Z,31.55
2018-08-04T16:59:00.666Z,31.33
2018-08-04T17:01:28.692Z,31.26
2018-08-04T17:03:56.673Z,31.10
2018-08-04T17:06:24.706Z,31.02
2018-08-04T17:08:53.941Z,30.80
2018-08-04T17:11:25.413Z,30.76
2018-08-04T17:13:53.902Z,30.90
2018-08-04T17:16:22.255Z,31.00
2018-08-04T17:18:50.274Z,30.93
2018-08-04T17:21:18.316Z,31.02
2018-08-04T17:23:46.440Z,30.90
2018-08-04T17:26:14.514Z,30.63
2018-08-04T17:28:42.495Z,30.67
2018-08-04T17:31:10.504Z,30.52
2018-08-04T17:33:38.513Z,30.37
2018-08-04T17:36:06.534Z,30.11
2018-08-04T17:38:34.596Z,29.76
2018-08-04T17:41:02.673Z,29.68
2018-08-04T17:43:30.833Z,29.47
2018-08-04T17:45:58.852Z,29.44
2018-08-04T17:48:26.896Z,29.51
2018-08-04T17:50:54.972Z,29.18
2018-08-04T17:53:23.041Z,29.10
2018-08-04T17:55:51.120Z,28.93
2018-08-04T17:58:19.245Z,28.89
2018-08-04T18:00:47.234Z,28.79
2018-08-04T18:03:15.333Z,28.76
2018-08-04T18:05:43.348Z,28.59
2018-08-04T18:08:11.337Z,28.38
2018-08-04T18:10:39.416Z,28.38
2018-08-04T18:13:07.550Z,28.33
2018-08-04T18:15:35.568Z,28.12
2018-08-04T18:18:03.604Z,28.03
2018-08-04T18:20:31.604Z,28.14
2018-08-04T18:22:59.696Z,28.03
2018-08-04T18:25:27.881Z,27.68
2018-08-04T18:27:55.942Z,27.43
2018-08-04T18:30:24.327Z,27.43
2018-08-04T18:32:52.369Z,27.36
2018-08-04T18:35:20.585Z,27.18
2018-08-04T18:37:48.713Z,27.18
2018-08-04T18:40:16.725Z,27.05
2018-08-04T18:42:44.774Z,26.90
2018-08-04T18:45:12.782Z,26.79
2018-08-04T18:47:40.774Z,26.87
2018-08-04T18:50:08.822Z,26.69
2018-08-04T18:52:36.799Z,26.48
2018-08-04T18:55:04.791Z,26.37
2018-08-04T18:57:32.797Z,26.24
2018-08-04T19:00:00.884Z,26.01
2018-08-04T19:02:28.885Z,25.87
2018-08-04T19:04:56.891Z,25.86
2018-08-04T19:07:24.981Z,25.91
2018-08-04T19:09:52.976Z,25.73
2018-08-04T19:12:21.027Z,25.60
2018-08-04T19:14:49.073Z,25.70
2018-08-04T19:17:17.124Z,25.66
2018-08-04T19:19:45.117Z,25.39
2018-08-04T19:22:13.154Z,25.24
2018-08-04T19:24:41.153Z,25.15
2018-08-04T19:27:09.150Z,24.98
2018-08-04T19:29:37.164Z,24.82
2018-08-04T19:32:05.189Z,24.75
2018-08-04T19:34:33.197Z,24.59
2018-08-04T19:37:01.188Z,24.53
2018-08-04T19:39:29.196Z,24.55
2018-08-04T19:41:57.216Z,24.29
2018-08-04T19:44:25.220Z,24.30
2018-08-04T19:46:53.213Z,24.42
2018-08-04T19:49:21.233Z,24.31
2018-08-04T19:51:49.278Z,24.35
2018-08-04T19:54:17.277Z,24.37
2018-08-04T19:56:45.280Z,24.22
2018-08-04T19:59:13.290Z,24.18
2018-08-04T20:01:41.280Z,24.04
2018-08-04T20:04:09.347Z,24.10
2018-08-04T20:06:37.360Z,23.99
2018-08-04T20:09:07.745Z,23.93
2018-08-04T20:11:35.833Z,23.90
2018-08-04T20:14:03.856Z,23.83
2018-08-04T20:16:32.041Z,23.81
2018-08-04T20:19:00.215Z,23.81
2018-08-04T20:21:28.324Z,23.75
2018-08-04T20:23:57.472Z,23.65
2018-08-04T20:26:25.544Z,23.40
2018-08-04T20:28:53.957Z,23.46
2018-08-04T20:31:21.932Z,23.49
2018-08-04T20:33:49.932Z,23.43
2018-08-04T20:36:17.953Z,23.47
2018-08-04T20:38:45.960Z,23.48
2018-08-04T20:41:13.963Z,23.50
2018-08-04T20:43:42.001Z,23.25
2018-08-04T20:46:10.064Z,23.19
2018-08-04T20:48:38.089Z,23.23
2018-08-04T20:51:06.089Z,23.33
2018-08-04T20:53:34.092Z,23.39
2018-08-04T20:56:02.105Z,23.38
2018-08-04T20:58:30.168Z,23.27
2018-08-04T21:01:09.680Z,23.14
2018-08-04T21:03:37.716Z,23.05
2018-08-04T21:06:05.705Z,23.10
2018-08-04T21:08:33.721Z,22.98
2018-08-04T21:11:01.756Z,22.96
2018-08-04T21:13:29.808Z,22.96
2018-08-04T21:15:57.885Z,22.81
2018-08-04T21:18:25.850Z,22.89
2018-08-04T21:20:54.036Z,22.90
2018-08-04T21:23:22.104Z,23.02
2018-08-04T21:25:50.112Z,22.98
2018-08-04T21:28:18.118Z,22.75
2018-08-04T21:30:46.100Z,22.67
2018-08-04T21:33:14.103Z,22.52
2018-08-04T21:35:42.155Z,22.52
2018-08-04T21:38:10.139Z,22.36
2018-08-04T21:40:39.264Z,22.42
2018-08-04T21:43:07.384Z,22.27
2018-08-04T21:45:35.396Z,22.20
2018-08-04T21:48:03.376Z,22.10
2018-08-04T21:50:31.413Z,22.07
2018-08-04T21:52:59.428Z,22.06
2018-08-04T21:55:28.504Z,21.92
2018-08-04T21:57:56.624Z,21.84
2018-08-04T22:00:24.672Z,21.92
2018-08-04T22:02:58.299Z,21.97
2018-08-04T22:05:26.899Z,21.98
2018-08-04T22:08:08.659Z,22.00
2018-08-04T22:10:37.253Z,21.94
2018-08-04T22:13:05.408Z,21.93
2018-08-04T22:15:34.370Z,21.94
2018-08-04T22:18:02.474Z,21.85
2018-08-04T22:20:30.936Z,21.78
2018-08-04T22:22:59.008Z,21.80
2018-08-04T22:25:29.211Z,21.79
2018-08-04T22:27:57.804Z,21.68
2018-08-04T22:30:26.304Z,21.69
2018-08-04T22:32:54.356Z,21.67
2018-08-04T22:35:22.712Z,21.69
2018-08-04T22:37:50.788Z,21.68
2018-08-04T22:40:19.812Z,21.70
2018-08-04T22:42:48.892Z,21.58
2018-08-04T22:46:05.756Z,21.52
2018-08-04T22:48:34.153Z,21.54
2018-08-04T22:51:02.190Z,21.56
2018-08-04T22:53:30.358Z,21.59
2018-08-04T22:55:58.391Z,21.63
2018-08-04T22:58:26.400Z,21.63
2018-08-04T23:00:54.481Z,21.57
2018-08-04T23:03:22.512Z,21.53
2018-08-04T23:05:50.634Z,21.49
2018-08-04T23:08:18.633Z,21.39
2018-08-04T23:10:46.772Z,21.51
2018-08-04T23:13:15.280Z,21.47
2018-08-04T23:15:43.332Z,21.50
2018-08-04T23:18:11.573Z,21.51
2018-08-04T23:20:39.826Z,21.51
2018-08-04T23:23:08.923Z,21.50
2018-08-04T23:25:36.934Z,21.36
2018-08-04T23:28:05.029Z,21.41
2018-08-04T23:30:33.024Z,21.35
2018-08-04T23:34:05.173Z,21.28
2018-08-04T23:36:33.184Z,21.14
2018-08-04T23:39:01.191Z,21.10
2018-08-04T23:41:29.189Z,21.13
2018-08-04T23:43:57.193Z,21.05
2018-08-04T23:46:25.200Z,21.11
2018-08-04T23:48:53.301Z,21.09
2018-08-04T23:51:21.321Z,21.15
2018-08-04T23:53:49.456Z,21.02
2018-08-04T23:56:17.488Z,21.05
2018-08-04T23:58:45.505Z,20.92
